FIN2PX EDDM-EFHK
Flight info
| Callsign | FIN2PX |
|---|---|
| Flight time | N/A |
| Altitude | 37000 |
| Route | AKINI1N/26R AKINI Y104 MAMOR L132 AGNAV DCT SUPIL DCT KILNU DCT UNRIG DCT BODLA DCT PENOR DCT ALAMI DCT OKEVU DCT EVADI Y370 DIVAM |
| Aircraft | A321/M-SDE3FGHIRWY/LB1 |
Departure
| Time | N/A |
|---|---|
| Airport | Munich Airport (EDDM) |
Arrival
| Time | 2026-04-23 18:22 |
|---|---|
| Airport | Helsinki Vantaa Airport (EFHK) |
| Time | Latitude | Longitude | Altitude | Speed | Heading |
|---|---|---|---|---|---|
| 2026-04-23 16:33 | 51.34970 | 13.33425 | 37210 ft | 404 kts | 19° |
| 2026-04-23 16:33 | 51.37659 | 13.34749 | 37216 ft | 404 kts | 19° |
| 2026-04-23 16:34 | 51.42163 | 13.36976 | 37215 ft | 405 kts | 19° |
| 2026-04-23 16:34 | 51.47545 | 13.39651 | 37215 ft | 405 kts | 19° |
| 2026-04-23 16:35 | 51.52897 | 13.42309 | 37213 ft | 405 kts | 18° |
| 2026-04-23 16:35 | 51.58279 | 13.44985 | 37216 ft | 405 kts | 18° |
| 2026-04-23 16:36 | 51.63670 | 13.47685 | 37213 ft | 405 kts | 19° |
| 2026-04-23 16:36 | 51.69058 | 13.50393 | 37217 ft | 405 kts | 18° |
| 2026-04-23 16:37 | 51.74444 | 13.53090 | 37209 ft | 405 kts | 18° |
| 2026-04-23 16:37 | 51.79830 | 13.55803 | 37208 ft | 405 kts | 18° |
| 2026-04-23 16:38 | 51.85218 | 13.58527 | 37211 ft | 406 kts | 18° |
| 2026-04-23 16:38 | 51.90588 | 13.61344 | 37214 ft | 405 kts | 20° |
| 2026-04-23 16:39 | 51.95880 | 13.64354 | 37213 ft | 405 kts | 20° |
| 2026-04-23 16:39 | 52.01228 | 13.67442 | 37207 ft | 405 kts | 20° |
| 2026-04-23 16:40 | 52.06551 | 13.70479 | 37208 ft | 405 kts | 19° |
| 2026-04-23 16:40 | 52.11843 | 13.73463 | 37206 ft | 405 kts | 19° |
| 2026-04-23 16:41 | 52.17178 | 13.76482 | 37209 ft | 405 kts | 19° |
| 2026-04-23 16:41 | 52.22500 | 13.79507 | 37213 ft | 405 kts | 19° |
| 2026-04-23 16:42 | 52.27823 | 13.82547 | 37213 ft | 405 kts | 19° |
| 2026-04-23 16:42 | 52.33145 | 13.85596 | 37210 ft | 405 kts | 19° |
| 2026-04-23 16:43 | 52.38461 | 13.88647 | 37203 ft | 405 kts | 19° |
| 2026-04-23 16:43 | 52.43787 | 13.91706 | 37201 ft | 405 kts | 19° |
| 2026-04-23 16:44 | 52.49061 | 13.94744 | 37078 ft | 404 kts | 19° |
| 2026-04-23 16:44 | 52.51709 | 13.96279 | 36805 ft | 403 kts | 19° |
| 2026-04-23 16:44 | 52.54352 | 13.97814 | 36548 ft | 403 kts | 19° |
| 2026-04-23 16:45 | 52.56996 | 13.99351 | 36287 ft | 403 kts | 19° |
| 2026-04-23 16:45 | 52.59642 | 14.00889 | 36033 ft | 404 kts | 19° |
| 2026-04-23 16:45 | 52.62292 | 14.02426 | 35781 ft | 404 kts | 19° |
| 2026-04-23 16:45 | 52.64949 | 14.03969 | 35530 ft | 405 kts | 19° |
| 2026-04-23 16:46 | 52.67605 | 14.05511 | 35283 ft | 405 kts | 19° |
| 2026-04-23 16:46 | 52.70267 | 14.07060 | 35132 ft | 405 kts | 19° |
| 2026-04-23 16:46 | 52.75596 | 14.10176 | 35169 ft | 406 kts | 19° |
| 2026-04-23 16:47 | 52.80926 | 14.13312 | 35166 ft | 407 kts | 19° |
| 2026-04-23 16:47 | 52.86260 | 14.16446 | 35166 ft | 407 kts | 19° |
| 2026-04-23 16:48 | 52.91557 | 14.19562 | 35165 ft | 406 kts | 18° |
| 2026-04-23 16:48 | 52.96862 | 14.22690 | 35166 ft | 404 kts | 18° |
| 2026-04-23 16:49 | 53.02157 | 14.25813 | 35163 ft | 404 kts | 18° |
| 2026-04-23 16:49 | 53.07449 | 14.28949 | 35163 ft | 404 kts | 18° |
| 2026-04-23 16:50 | 53.12733 | 14.32098 | 35160 ft | 404 kts | 18° |
| 2026-04-23 16:50 | 53.17960 | 14.35229 | 35164 ft | 403 kts | 18° |
| 2026-04-23 16:51 | 53.23233 | 14.38386 | 35161 ft | 403 kts | 18° |
| 2026-04-23 16:51 | 53.28409 | 14.41965 | 35163 ft | 405 kts | 27° |
| 2026-04-23 16:52 | 53.33142 | 14.47028 | 35163 ft | 406 kts | 30° |
| 2026-04-23 16:52 | 53.37880 | 14.52194 | 35163 ft | 406 kts | 30° |
| 2026-04-23 16:53 | 53.42604 | 14.57352 | 35189 ft | 405 kts | 30° |
| 2026-04-23 16:53 | 53.47306 | 14.62504 | 35161 ft | 402 kts | 30° |
| 2026-04-23 16:54 | 53.51977 | 14.67647 | 35168 ft | 402 kts | 30° |
| 2026-04-23 16:54 | 53.56651 | 14.72802 | 35164 ft | 402 kts | 30° |
| 2026-04-23 16:55 | 53.61322 | 14.77953 | 35166 ft | 401 kts | 29° |
| 2026-04-23 16:55 | 53.65984 | 14.83114 | 35164 ft | 401 kts | 29° |
| 2026-04-23 16:56 | 53.70654 | 14.88294 | 35167 ft | 401 kts | 29° |
| 2026-04-23 16:56 | 53.75286 | 14.93447 | 35168 ft | 401 kts | 29° |
| 2026-04-23 16:57 | 53.79949 | 14.98661 | 35160 ft | 401 kts | 30° |
| 2026-04-23 16:57 | 53.84598 | 15.03885 | 35152 ft | 401 kts | 29° |
| 2026-04-23 16:58 | 53.89248 | 15.09106 | 35154 ft | 401 kts | 29° |
| 2026-04-23 16:58 | 53.93894 | 15.14328 | 35154 ft | 401 kts | 29° |
| 2026-04-23 16:59 | 53.98539 | 15.19567 | 35157 ft | 401 kts | 29° |
| 2026-04-23 16:59 | 54.03180 | 15.24825 | 35152 ft | 401 kts | 29° |
| 2026-04-23 17:00 | 54.07818 | 15.30091 | 35154 ft | 400 kts | 29° |
| 2026-04-23 17:00 | 54.12415 | 15.35329 | 35146 ft | 400 kts | 29° |
| 2026-04-23 17:01 | 54.17038 | 15.40608 | 35144 ft | 400 kts | 29° |
| 2026-04-23 17:01 | 54.21659 | 15.45909 | 35145 ft | 400 kts | 29° |
| 2026-04-23 17:02 | 54.26287 | 15.51216 | 35144 ft | 400 kts | 29° |
| 2026-04-23 17:02 | 54.30906 | 15.56522 | 35139 ft | 400 kts | 29° |
| 2026-04-23 17:03 | 54.35522 | 15.61854 | 35136 ft | 400 kts | 29° |
| 2026-04-23 17:03 | 54.40133 | 15.67186 | 35136 ft | 400 kts | 29° |
| 2026-04-23 17:04 | 54.44721 | 15.72504 | 35127 ft | 400 kts | 29° |
| 2026-04-23 17:04 | 54.49333 | 15.77868 | 35138 ft | 400 kts | 29° |
| 2026-04-23 17:05 | 54.53939 | 15.83250 | 35125 ft | 400 kts | 29° |
| 2026-04-23 17:05 | 54.58546 | 15.88646 | 35125 ft | 400 kts | 29° |
| 2026-04-23 17:06 | 54.63154 | 15.94051 | 35117 ft | 400 kts | 29° |
| 2026-04-23 17:06 | 54.67741 | 15.99442 | 35117 ft | 400 kts | 29° |
| 2026-04-23 17:07 | 54.72344 | 16.04862 | 35129 ft | 400 kts | 29° |
| 2026-04-23 17:07 | 54.76937 | 16.10308 | 35112 ft | 400 kts | 29° |
| 2026-04-23 17:08 | 54.81524 | 16.15762 | 35108 ft | 400 kts | 29° |
| 2026-04-23 17:08 | 54.86113 | 16.21225 | 35109 ft | 400 kts | 29° |
| 2026-04-23 17:09 | 54.90671 | 16.26660 | 35104 ft | 400 kts | 29° |
| 2026-04-23 17:09 | 54.95262 | 16.32139 | 35099 ft | 400 kts | 29° |
| 2026-04-23 17:10 | 54.99842 | 16.37633 | 35096 ft | 400 kts | 29° |
| 2026-04-23 17:10 | 55.04427 | 16.43160 | 35094 ft | 400 kts | 29° |
| 2026-04-23 17:11 | 55.08971 | 16.48649 | 35093 ft | 400 kts | 29° |
| 2026-04-23 17:11 | 55.13546 | 16.54181 | 35094 ft | 400 kts | 29° |
| 2026-04-23 17:12 | 55.18122 | 16.59729 | 35091 ft | 400 kts | 29° |
| 2026-04-23 17:12 | 55.22697 | 16.65293 | 35090 ft | 400 kts | 29° |
| 2026-04-23 17:13 | 55.27270 | 16.70870 | 35099 ft | 400 kts | 29° |
| 2026-04-23 17:13 | 55.31835 | 16.76457 | 35086 ft | 400 kts | 29° |
| 2026-04-23 17:14 | 55.36234 | 16.81856 | 35102 ft | 400 kts | 29° |
| 2026-04-23 17:14 | 55.40779 | 16.87452 | 35107 ft | 397 kts | 28° |
| 2026-04-23 17:15 | 55.45293 | 16.93033 | 35092 ft | 397 kts | 28° |
| 2026-04-23 17:15 | 55.49786 | 16.98596 | 35092 ft | 397 kts | 28° |
| 2026-04-23 17:16 | 55.54305 | 17.04205 | 35093 ft | 397 kts | 28° |
| 2026-04-23 17:16 | 55.58819 | 17.09823 | 35089 ft | 397 kts | 28° |
| 2026-04-23 17:17 | 55.63339 | 17.15458 | 35088 ft | 396 kts | 27° |
| 2026-04-23 17:17 | 55.68067 | 17.20289 | 35089 ft | 392 kts | 23° |
| 2026-04-23 17:18 | 55.75204 | 17.27369 | 35090 ft | 392 kts | 23° |
| 2026-04-23 17:19 | 55.79963 | 17.32116 | 35087 ft | 392 kts | 23° |
| 2026-04-23 17:19 | 55.84718 | 17.36866 | 35087 ft | 392 kts | 23° |
| 2026-04-23 17:20 | 55.89470 | 17.41628 | 35091 ft | 392 kts | 23° |
| 2026-04-23 17:21 | 55.98983 | 17.51197 | 35087 ft | 392 kts | 23° |
| 2026-04-23 17:21 | 56.06116 | 17.58393 | 35086 ft | 392 kts | 23° |
| 2026-04-23 17:22 | 56.12444 | 17.64822 | 35099 ft | 393 kts | 23° |
| 2026-04-23 17:23 | 56.20361 | 17.72908 | 35080 ft | 394 kts | 23° |
| 2026-04-23 17:24 | 56.26738 | 17.79434 | 35080 ft | 394 kts | 23° |
| 2026-04-23 17:24 | 56.33848 | 17.86757 | 35080 ft | 394 kts | 23° |
| 2026-04-23 17:25 | 56.40988 | 17.94120 | 35073 ft | 394 kts | 23° |
| 2026-04-23 17:26 | 56.50533 | 18.04015 | 35068 ft | 395 kts | 23° |
| 2026-04-23 17:27 | 56.57670 | 18.11492 | 35073 ft | 395 kts | 23° |
| 2026-04-23 17:27 | 56.62426 | 18.16472 | 35067 ft | 394 kts | 23° |
| 2026-04-23 17:28 | 56.67161 | 18.21445 | 35068 ft | 393 kts | 23° |
| 2026-04-23 17:28 | 56.71877 | 18.26408 | 35065 ft | 393 kts | 24° |
| 2026-04-23 17:29 | 56.76611 | 18.31404 | 35066 ft | 393 kts | 24° |
| 2026-04-23 17:30 | 56.83713 | 18.38935 | 35064 ft | 394 kts | 24° |
| 2026-04-23 17:30 | 56.90806 | 18.46494 | 35062 ft | 392 kts | 24° |
| 2026-04-23 17:31 | 56.95521 | 18.51538 | 35062 ft | 392 kts | 24° |
| 2026-04-23 17:31 | 57.00196 | 18.56559 | 35055 ft | 391 kts | 24° |
| 2026-04-23 17:32 | 57.04877 | 18.61585 | 35057 ft | 390 kts | 24° |
| 2026-04-23 17:32 | 57.09558 | 18.66628 | 35076 ft | 390 kts | 24° |
| 2026-04-23 17:33 | 57.14232 | 18.71686 | 35060 ft | 389 kts | 24° |
| 2026-04-23 17:33 | 57.18890 | 18.76748 | 35056 ft | 389 kts | 24° |
| 2026-04-23 17:34 | 57.23549 | 18.81820 | 35055 ft | 389 kts | 24° |
| 2026-04-23 17:35 | 57.30536 | 18.89446 | 35053 ft | 389 kts | 24° |
| 2026-04-23 17:35 | 57.37523 | 18.97107 | 35040 ft | 389 kts | 24° |
| 2026-04-23 17:36 | 57.42177 | 19.02242 | 35046 ft | 389 kts | 24° |
| 2026-04-23 17:36 | 57.46824 | 19.07372 | 35051 ft | 389 kts | 24° |
| 2026-04-23 17:37 | 57.51476 | 19.12523 | 35039 ft | 389 kts | 24° |
| 2026-04-23 17:38 | 57.58417 | 19.20238 | 35055 ft | 389 kts | 25° |
| 2026-04-23 17:38 | 57.63063 | 19.25430 | 35047 ft | 389 kts | 25° |
| 2026-04-23 17:39 | 57.67706 | 19.30629 | 35039 ft | 389 kts | 25° |
| 2026-04-23 17:39 | 57.72349 | 19.35847 | 35041 ft | 389 kts | 25° |
| 2026-04-23 17:40 | 57.76982 | 19.41065 | 35040 ft | 389 kts | 25° |
| 2026-04-23 17:40 | 57.81619 | 19.46301 | 35038 ft | 389 kts | 25° |
| 2026-04-23 17:41 | 57.86220 | 19.51516 | 35039 ft | 388 kts | 25° |
| 2026-04-23 17:41 | 57.93156 | 19.59407 | 35032 ft | 388 kts | 25° |
| 2026-04-23 17:42 | 58.00093 | 19.67318 | 35027 ft | 389 kts | 25° |
| 2026-04-23 17:43 | 58.04714 | 19.72617 | 35027 ft | 389 kts | 25° |
| 2026-04-23 17:43 | 58.09327 | 19.77928 | 35019 ft | 388 kts | 25° |
| 2026-04-23 17:44 | 58.13928 | 19.83250 | 35021 ft | 387 kts | 25° |
| 2026-04-23 17:44 | 58.20824 | 19.91246 | 35019 ft | 387 kts | 25° |
| 2026-04-23 17:45 | 58.27722 | 19.99269 | 35016 ft | 388 kts | 25° |
| 2026-04-23 17:46 | 58.34578 | 20.07292 | 35014 ft | 386 kts | 25° |
| 2026-04-23 17:46 | 58.39148 | 20.12665 | 35013 ft | 386 kts | 25° |
| 2026-04-23 17:47 | 58.43719 | 20.18030 | 35013 ft | 385 kts | 25° |
| 2026-04-23 17:48 | 58.50565 | 20.26107 | 35006 ft | 385 kts | 25° |
| 2026-04-23 17:48 | 58.55127 | 20.31527 | 35008 ft | 385 kts | 25° |
| 2026-04-23 17:49 | 58.59641 | 20.36912 | 35011 ft | 384 kts | 25° |
| 2026-04-23 17:49 | 58.64163 | 20.42321 | 35011 ft | 383 kts | 25° |
| 2026-04-23 17:50 | 58.68693 | 20.47750 | 35000 ft | 383 kts | 25° |
| 2026-04-23 17:50 | 58.75478 | 20.55899 | 35002 ft | 383 kts | 25° |
| 2026-04-23 17:51 | 58.79996 | 20.61354 | 35001 ft | 383 kts | 25° |
| 2026-04-23 17:52 | 58.86760 | 20.69560 | 34989 ft | 381 kts | 25° |
| 2026-04-23 17:52 | 58.93474 | 20.77741 | 34988 ft | 380 kts | 25° |
| 2026-04-23 17:53 | 59.00155 | 20.85919 | 34984 ft | 380 kts | 25° |
| 2026-04-23 17:54 | 59.04368 | 20.92263 | 34984 ft | 391 kts | 37° |
| 2026-04-23 17:54 | 59.09195 | 21.05585 | 34982 ft | 408 kts | 49° |
| 2026-04-23 17:55 | 59.13628 | 21.19706 | 34974 ft | 408 kts | 49° |
| 2026-04-23 17:56 | 59.16584 | 21.29145 | 34973 ft | 408 kts | 49° |
| 2026-04-23 17:56 | 59.20994 | 21.43370 | 34972 ft | 408 kts | 49° |
| 2026-04-23 17:57 | 59.23924 | 21.52869 | 34975 ft | 408 kts | 49° |
| 2026-04-23 17:57 | 59.26862 | 21.62388 | 34675 ft | 408 kts | 49° |
| 2026-04-23 17:58 | 59.28322 | 21.67145 | 34432 ft | 407 kts | 49° |
| 2026-04-23 17:58 | 59.29759 | 21.71837 | 34185 ft | 407 kts | 49° |
| 2026-04-23 17:58 | 59.31229 | 21.76643 | 34005 ft | 406 kts | 49° |
| 2026-04-23 17:58 | 59.32672 | 21.81385 | 33749 ft | 405 kts | 49° |
| 2026-04-23 17:59 | 59.34111 | 21.86129 | 33464 ft | 405 kts | 49° |
| 2026-04-23 17:59 | 59.35549 | 21.90878 | 33187 ft | 405 kts | 49° |
| 2026-04-23 17:59 | 59.36969 | 21.95567 | 32909 ft | 404 kts | 49° |
| 2026-04-23 17:59 | 59.38407 | 22.00318 | 32324 ft | 405 kts | 49° |
| 2026-04-23 18:00 | 59.39826 | 22.05026 | 31898 ft | 399 kts | 49° |
| 2026-04-23 18:00 | 59.41229 | 22.09695 | 31405 ft | 395 kts | 49° |
| 2026-04-23 18:00 | 59.42618 | 22.14325 | 30916 ft | 391 kts | 49° |
| 2026-04-23 18:00 | 59.43991 | 22.18908 | 30426 ft | 387 kts | 49° |
| 2026-04-23 18:01 | 59.45394 | 22.23455 | 29476 ft | 392 kts | 47° |
| 2026-04-23 18:01 | 59.46850 | 22.27969 | 28677 ft | 388 kts | 47° |
| 2026-04-23 18:01 | 59.48315 | 22.32432 | 27528 ft | 388 kts | 47° |
| 2026-04-23 18:01 | 59.49778 | 22.36880 | 26525 ft | 386 kts | 47° |
| 2026-04-23 18:02 | 59.50738 | 22.39815 | 25923 ft | 384 kts | 47° |
| 2026-04-23 18:02 | 59.52648 | 22.45702 | 25097 ft | 377 kts | 47° |
| 2026-04-23 18:02 | 59.54031 | 22.50017 | 24851 ft | 367 kts | 47° |
| 2026-04-23 18:02 | 59.55379 | 22.54242 | 24611 ft | 361 kts | 47° |
| 2026-04-23 18:03 | 59.56716 | 22.58419 | 24371 ft | 359 kts | 47° |
| 2026-04-23 18:03 | 59.58048 | 22.62573 | 24142 ft | 357 kts | 47° |
| 2026-04-23 18:03 | 59.59361 | 22.66682 | 23868 ft | 351 kts | 47° |
| 2026-04-23 18:03 | 59.60655 | 22.70745 | 23481 ft | 348 kts | 47° |
| 2026-04-23 18:04 | 59.61923 | 22.74729 | 23123 ft | 344 kts | 47° |
| 2026-04-23 18:04 | 59.63207 | 22.78766 | 22679 ft | 340 kts | 47° |
| 2026-04-23 18:04 | 59.64453 | 22.82696 | 22318 ft | 335 kts | 47° |
| 2026-04-23 18:04 | 59.65679 | 22.86579 | 21935 ft | 330 kts | 47° |
| 2026-04-23 18:05 | 59.66869 | 22.90349 | 21583 ft | 325 kts | 47° |
| 2026-04-23 18:05 | 59.68057 | 22.94116 | 21211 ft | 320 kts | 47° |
| 2026-04-23 18:05 | 59.69230 | 22.97833 | 20834 ft | 317 kts | 47° |
| 2026-04-23 18:05 | 59.70410 | 23.01565 | 20463 ft | 315 kts | 47° |
| 2026-04-23 18:06 | 59.71567 | 23.05227 | 20090 ft | 313 kts | 47° |
| 2026-04-23 18:06 | 59.72701 | 23.08830 | 19711 ft | 311 kts | 47° |
| 2026-04-23 18:06 | 59.73842 | 23.12465 | 19339 ft | 310 kts | 47° |
| 2026-04-23 18:06 | 59.74975 | 23.16087 | 18946 ft | 308 kts | 48° |
| 2026-04-23 18:07 | 59.76100 | 23.19699 | 18561 ft | 306 kts | 48° |
| 2026-04-23 18:07 | 59.77217 | 23.23290 | 18173 ft | 305 kts | 48° |
| 2026-04-23 18:07 | 59.78332 | 23.26873 | 17743 ft | 303 kts | 48° |
| 2026-04-23 18:07 | 59.79064 | 23.29228 | 17502 ft | 303 kts | 48° |
| 2026-04-23 18:08 | 59.80166 | 23.32775 | 17121 ft | 301 kts | 49° |
| 2026-04-23 18:08 | 59.81265 | 23.36317 | 16741 ft | 300 kts | 49° |
| 2026-04-23 18:08 | 59.82357 | 23.39848 | 16344 ft | 299 kts | 49° |
| 2026-04-23 18:08 | 59.83447 | 23.43380 | 15986 ft | 298 kts | 49° |
| 2026-04-23 18:09 | 59.84530 | 23.46885 | 15504 ft | 299 kts | 49° |
| 2026-04-23 18:09 | 59.85652 | 23.50495 | 14664 ft | 312 kts | 50° |
| 2026-04-23 18:09 | 59.86780 | 23.54152 | 14102 ft | 315 kts | 51° |
| 2026-04-23 18:09 | 59.87918 | 23.57870 | 13610 ft | 314 kts | 51° |
| 2026-04-23 18:10 | 59.89052 | 23.61581 | 13093 ft | 313 kts | 51° |
| 2026-04-23 18:10 | 59.90180 | 23.65277 | 12607 ft | 311 kts | 51° |
| 2026-04-23 18:10 | 59.91304 | 23.68965 | 12131 ft | 310 kts | 51° |
| 2026-04-23 18:10 | 59.92419 | 23.72627 | 11665 ft | 308 kts | 52° |
| 2026-04-23 18:11 | 59.93526 | 23.76271 | 11200 ft | 307 kts | 52° |
| 2026-04-23 18:11 | 59.94627 | 23.79893 | 10793 ft | 305 kts | 52° |
| 2026-04-23 18:11 | 59.95720 | 23.83495 | 10382 ft | 302 kts | 52° |
| 2026-04-23 18:11 | 59.96807 | 23.87080 | 9952 ft | 301 kts | 52° |
| 2026-04-23 18:12 | 59.97874 | 23.90620 | 9744 ft | 291 kts | 52° |
| 2026-04-23 18:12 | 59.98894 | 23.94023 | 9598 ft | 280 kts | 52° |
| 2026-04-23 18:12 | 59.99880 | 23.97302 | 9386 ft | 272 kts | 52° |
| 2026-04-23 18:12 | 60.00850 | 24.00516 | 9047 ft | 269 kts | 52° |
| 2026-04-23 18:13 | 60.01804 | 24.03674 | 8671 ft | 268 kts | 53° |
| 2026-04-23 18:13 | 60.02763 | 24.06861 | 8306 ft | 267 kts | 53° |
| 2026-04-23 18:13 | 60.03718 | 24.10043 | 7924 ft | 267 kts | 53° |
| 2026-04-23 18:13 | 60.04672 | 24.13226 | 7547 ft | 266 kts | 54° |
| 2026-04-23 18:14 | 60.05621 | 24.16393 | 7184 ft | 265 kts | 54° |
| 2026-04-23 18:14 | 60.06569 | 24.19555 | 6821 ft | 264 kts | 54° |
| 2026-04-23 18:14 | 60.07509 | 24.22697 | 6490 ft | 263 kts | 55° |
| 2026-04-23 18:14 | 60.08449 | 24.25838 | 6168 ft | 262 kts | 55° |
| 2026-04-23 18:15 | 60.09382 | 24.28970 | 5826 ft | 261 kts | 55° |
| 2026-04-23 18:15 | 60.10311 | 24.32092 | 5546 ft | 261 kts | 55° |
| 2026-04-23 18:15 | 60.11241 | 24.35226 | 5282 ft | 261 kts | 55° |
| 2026-04-23 18:15 | 60.12168 | 24.38356 | 5085 ft | 260 kts | 55° |
| 2026-04-23 18:16 | 60.13092 | 24.41482 | 4965 ft | 261 kts | 56° |
| 2026-04-23 18:16 | 60.14016 | 24.44609 | 4831 ft | 261 kts | 55° |
| 2026-04-23 18:16 | 60.14943 | 24.47749 | 4755 ft | 261 kts | 56° |
| 2026-04-23 18:17 | 60.16747 | 24.53876 | 4347 ft | 250 kts | 56° |
| 2026-04-23 18:17 | 60.17611 | 24.56825 | 4047 ft | 240 kts | 56° |
| 2026-04-23 18:17 | 60.18443 | 24.59667 | 3760 ft | 232 kts | 56° |
| 2026-04-23 18:17 | 60.19230 | 24.62359 | 3505 ft | 220 kts | 56° |
| 2026-04-23 18:18 | 60.19990 | 24.64960 | 3233 ft | 211 kts | 56° |
| 2026-04-23 18:18 | 60.20810 | 24.67334 | 2971 ft | 205 kts | 47° |
| 2026-04-23 18:18 | 60.21736 | 24.69483 | 2723 ft | 201 kts | 44° |
| 2026-04-23 18:18 | 60.22651 | 24.71495 | 2501 ft | 186 kts | 44° |
| 2026-04-23 18:19 | 60.23477 | 24.73298 | 2409 ft | 173 kts | 43° |
| 2026-04-23 18:19 | 60.24305 | 24.75096 | 2220 ft | 174 kts | 44° |
| 2026-04-23 18:19 | 60.25091 | 24.76814 | 1999 ft | 161 kts | 43° |
| 2026-04-23 18:19 | 60.25842 | 24.78452 | 1787 ft | 157 kts | 43° |
| 2026-04-23 18:20 | 60.26567 | 24.80037 | 1583 ft | 146 kts | 43° |
| 2026-04-23 18:20 | 60.27242 | 24.81513 | 1375 ft | 140 kts | 43° |
| 2026-04-23 18:20 | 60.27889 | 24.82927 | 1176 ft | 139 kts | 44° |
| 2026-04-23 18:20 | 60.28548 | 24.84366 | 967 ft | 140 kts | 44° |
| 2026-04-23 18:21 | 60.29209 | 24.85819 | 781 ft | 140 kts | 45° |
| 2026-04-23 18:21 | 60.29869 | 24.87267 | 594 ft | 140 kts | 44° |
| 2026-04-23 18:21 | 60.30534 | 24.88717 | 426 ft | 141 kts | 45° |
| 2026-04-23 18:21 | 60.31201 | 24.90179 | 284 ft | 141 kts | 45° |
| 2026-04-23 18:22 | 60.31843 | 24.91588 | 195 ft | 125 kts | 48° |
| 2026-04-23 18:22 | 60.32317 | 24.92634 | 199 ft | 76 kts | 47° |
| 2026-04-23 18:22 | 60.32591 | 24.93237 | 197 ft | 50 kts | 48° |
| 2026-04-23 18:22 | 60.32807 | 24.93712 | 194 ft | 39 kts | 47° |
| 2026-04-23 18:23 | 60.32920 | 24.93959 | 189 ft | 34 kts | 47° |
| 2026-04-23 18:23 | 60.33049 | 24.94485 | 196 ft | 0 kts | 89° |
| 2026-04-23 18:24 | 60.33048 | 24.94523 | 189 ft | 0 kts | 92° |
| 2026-04-23 18:24 | 60.33048 | 24.94547 | 189 ft | 4 kts | 92° |
| 2026-04-23 18:24 | 60.33047 | 24.94608 | 188 ft | 1 kts | 92° |
| 2026-04-23 18:25 | 60.33058 | 24.94846 | 192 ft | 12 kts | 49° |
| 2026-04-23 18:25 | 60.33109 | 24.94987 | 187 ft | 13 kts | 79° |
| 2026-04-23 18:25 | 60.33118 | 24.95180 | 195 ft | 14 kts | 69° |
| 2026-04-23 18:25 | 60.33184 | 24.95341 | 196 ft | 16 kts | 48° |
| 2026-04-23 18:26 | 60.33190 | 24.95548 | 195 ft | 17 kts | 129° |
| 2026-04-23 18:26 | 60.33102 | 24.95713 | 196 ft | 18 kts | 137° |
| 2026-04-23 18:26 | 60.32995 | 24.95859 | 192 ft | 19 kts | 149° |
| 2026-04-23 18:26 | 60.32876 | 24.95998 | 196 ft | 20 kts | 150° |
| 2026-04-23 18:27 | 60.32751 | 24.96144 | 199 ft | 21 kts | 150° |
| 2026-04-23 18:27 | 60.32623 | 24.96293 | 191 ft | 22 kts | 150° |
| 2026-04-23 18:27 | 60.32497 | 24.96441 | 192 ft | 21 kts | 149° |
| 2026-04-23 18:27 | 60.32388 | 24.96568 | 196 ft | 14 kts | 150° |
| 2026-04-23 18:28 | 60.32317 | 24.96648 | 196 ft | 10 kts | 150° |
| 2026-04-23 18:28 | 60.32256 | 24.96720 | 192 ft | 9 kts | 150° |
| 2026-04-23 18:28 | 60.32195 | 24.96791 | 196 ft | 12 kts | 150° |
| 2026-04-23 18:28 | 60.32116 | 24.96882 | 193 ft | 14 kts | 150° |
| 2026-04-23 18:29 | 60.32026 | 24.96982 | 192 ft | 15 kts | 151° |
| 2026-04-23 18:29 | 60.31928 | 24.97087 | 196 ft | 17 kts | 153° |
| 2026-04-23 18:29 | 60.31829 | 24.97189 | 194 ft | 15 kts | 152° |
| 2026-04-23 18:29 | 60.31770 | 24.97194 | 188 ft | 5 kts | 232° |
| 2026-04-23 18:30 | 60.31755 | 24.97134 | 193 ft | 4 kts | 243° |
| 2026-04-23 18:30 | 60.31752 | 24.97122 | 192 ft | 1 kts | 243° |